Etusivu
METAR-TAF:

METAR-TAF

Lentoasemat :

Richard B. Helgeson Airport

Two Harbors, Minnesota, Yhdysvallat

Leveyspiiri: 47-03N, Pituuspiiri: 091-45W, korkeus merenpinnasta: 328 m

Tämänhetkinen sää

Tämä raportti tehtiin 11 minuuttia sitten, kello 09.27 UTC
Tuuli 5 kn etelästä/lounaasta
Lämpötila -10°C
Kosteus 72%
Ilmanpaine 1013 hPa
Näkyvyys: 2.0 km
Pilvistä 1100 ft:n korkeudessa
heikkoa lumisadetta

METAR: KTWM 130927Z AUTO 20005KT 1 1/4SM -SN OVC011 M10/M14 A2991 RMK AO2

Aika: 03:38 (09:38 UTC)


TAF: puuttuu

Säähavainnot ja -ennusteet yli 4000 lentoasemalta (METAR- ja TAF-raportit).

Käytössä olevat sääasemat on merkitty karttaan keltaisilla ja punaisilla pisteillä.

Aseta hiiri pisteen päälle nähdäksesi sääaseman nimen.

Klikkaa sitten nähdäksesi säähavainnot ja -ennusteet.

Kartan vaihtaminen: klikkaa mustalla rastilla varustettuja vihreitä pisteitä, niin voit zoomata sisään; viivalla varustettua vihreää pistettä, niin voit zoomata ulos tai vihreitä nuolia, niin pääset viereisille kartoille.


METAR-TAF: